createdAt,value
2023-04-14T00:02:05.959Z,30.73
2023-04-14T00:04:32.725Z,29.53
2023-04-14T00:07:00.018Z,31.10
2023-04-14T00:09:26.812Z,26.67
2023-04-14T00:11:53.396Z,32.57
2023-04-14T00:14:19.948Z,34.57
2023-04-14T00:16:47.482Z,31.73
2023-04-14T00:19:14.042Z,32.80
2023-04-14T00:21:40.600Z,32.17
2023-04-14T00:24:08.161Z,29.10
2023-04-14T00:26:34.743Z,30.67
2023-04-14T00:29:01.558Z,33.43
2023-04-14T00:31:28.397Z,31.43
2023-04-14T00:33:56.100Z,38.83
2023-04-14T00:36:22.688Z,32.87
2023-04-14T00:38:49.311Z,36.57
2023-04-14T00:41:15.836Z,33.23
2023-04-14T00:43:42.495Z,33.20
2023-04-14T00:46:09.435Z,31.57
2023-04-14T00:48:36.477Z,33.50
2023-04-14T00:51:04.219Z,31.40
2023-04-14T00:53:32.068Z,32.37
2023-04-14T00:56:00.278Z,34.03
2023-04-14T00:58:27.342Z,35.87
2023-04-14T01:00:55.525Z,39.87
2023-04-14T01:03:24.463Z,35.30
2023-04-14T01:05:51.483Z,38.13
2023-04-14T01:08:19.384Z,42.10
2023-04-14T01:11:00.156Z,38.00
2023-04-14T01:13:44.562Z,31.30
2023-04-14T01:16:30.707Z,30.03
2023-04-14T01:19:28.516Z,31.80
2023-04-14T01:22:01.705Z,32.53
2023-04-14T01:25:06.285Z,33.90
2023-04-14T01:28:13.943Z,33.53
2023-04-14T01:31:03.699Z,30.17
2023-04-14T01:33:33.372Z,31.63
2023-04-14T01:36:06.939Z,32.93
2023-04-14T01:38:36.562Z,32.57
2023-04-14T01:41:06.939Z,33.03
2023-04-14T01:43:37.223Z,31.20
2023-04-14T01:46:07.618Z,30.20
2023-04-14T01:48:35.237Z,35.97
2023-04-14T01:51:04.456Z,36.77
2023-04-14T01:53:33.520Z,34.23
2023-04-14T01:56:01.626Z,33.60
2023-04-14T01:58:29.511Z,34.20
2023-04-14T02:00:57.685Z,37.87
2023-04-14T02:03:26.385Z,35.87
2023-04-14T02:05:55.401Z,35.87
2023-04-14T02:08:24.218Z,34.20
2023-04-14T02:10:53.731Z,40.17
2023-04-14T02:13:23.184Z,39.40
2023-04-14T02:15:53.540Z,35.93
2023-04-14T02:18:22.877Z,35.00
2023-04-14T02:20:52.419Z,37.53
2023-04-14T02:23:18.978Z,40.10
2023-04-14T02:26:10.298Z,34.93
2023-04-14T02:28:43.155Z,40.73
2023-04-14T02:31:14.141Z,33.40
2023-04-14T02:33:41.108Z,38.97
2023-04-14T02:36:21.518Z,40.40
2023-04-14T02:38:55.415Z,40.30
2023-04-14T02:41:31.308Z,38.40
2023-04-14T02:44:21.137Z,37.93
2023-04-14T02:47:07.643Z,38.43
2023-04-14T02:49:43.216Z,38.63
2023-04-14T02:52:14.019Z,44.90
2023-04-14T02:54:43.141Z,43.17
2023-04-14T02:57:10.706Z,49.47
2023-04-14T02:59:38.843Z,44.83
2023-04-14T03:02:07.043Z,50.53
2023-04-14T03:04:35.952Z,74.40
2023-04-14T03:07:04.681Z,54.17
2023-04-14T03:09:32.142Z,194.53
2023-04-14T03:11:59.907Z,171.70
2023-04-14T03:14:27.925Z,87.97
2023-04-14T03:16:56.016Z,122.43
2023-04-14T03:19:23.776Z,65.37
2023-04-14T03:21:52.130Z,106.03
2023-04-14T03:24:24.317Z,77.27
2023-04-14T03:26:57.122Z,141.30
2023-04-14T03:29:32.503Z,226.03
2023-04-14T03:32:02.475Z,37.30
2023-04-14T03:34:31.659Z,99.43
2023-04-14T03:36:59.075Z,111.40
2023-04-14T03:39:27.966Z,47.73
2023-04-14T03:41:57.119Z,35.83
2023-04-14T03:44:26.218Z,28.30
2023-04-14T03:46:54.478Z,57.93
2023-04-14T03:49:24.013Z,48.83
2023-04-14T03:51:53.366Z,27.77
2023-04-14T03:54:24.135Z,37.30
2023-04-14T03:56:51.846Z,32.60
2023-04-14T03:59:21.573Z,33.53
2023-04-14T04:01:48.859Z,31.97
2023-04-14T04:04:18.177Z,31.90
2023-04-14T04:06:46.009Z,32.93
2023-04-14T04:09:15.697Z,32.87
2023-04-14T04:11:45.653Z,32.20
2023-04-14T04:14:17.534Z,38.13
2023-04-14T04:16:49.607Z,32.73
2023-04-14T04:19:19.733Z,34.37
2023-04-14T04:21:49.038Z,32.07
2023-04-14T04:24:17.009Z,33.23
2023-04-14T04:26:44.146Z,36.90
2023-04-14T04:29:11.118Z,34.97
2023-04-14T04:31:39.734Z,32.07
2023-04-14T04:34:07.687Z,32.97
2023-04-14T04:36:36.143Z,38.40
2023-04-14T04:39:03.323Z,40.70
2023-04-14T04:41:31.077Z,34.87
2023-04-14T04:43:59.223Z,33.50
2023-04-14T04:46:47.846Z,39.80
2023-04-14T04:49:14.689Z,35.27
2023-04-14T04:51:41.321Z,33.80
2023-04-14T04:54:08.443Z,37.83
2023-04-14T04:56:35.263Z,42.93
2023-04-14T04:59:02.670Z,43.23
2023-04-14T05:01:29.554Z,37.40
2023-04-14T05:03:56.317Z,36.67
2023-04-14T05:06:23.165Z,39.53
2023-04-14T05:08:53.501Z,36.47
2023-04-14T05:11:20.429Z,38.40
2023-04-14T05:13:47.138Z,37.10
2023-04-14T05:16:14.493Z,37.93
2023-04-14T05:18:42.830Z,35.43
2023-04-14T05:21:14.635Z,40.37
2023-04-14T05:23:43.562Z,32.60
2023-04-14T05:28:42.883Z,37.77
2023-04-14T05:31:09.661Z,35.93
2023-04-14T05:33:36.487Z,36.20
2023-04-14T05:36:03.347Z,36.33
2023-04-14T05:38:30.046Z,38.03
2023-04-14T05:40:56.692Z,40.07
2023-04-14T05:43:23.302Z,35.93
2023-04-14T05:45:49.998Z,39.93
2023-04-14T05:48:17.664Z,38.37
2023-04-14T05:50:44.495Z,40.53
2023-04-14T05:53:11.918Z,38.47
2023-04-14T05:55:41.632Z,38.50
2023-04-14T05:58:08.274Z,35.40
2023-04-14T06:00:34.893Z,34.20
2023-04-14T06:03:01.696Z,36.27
2023-04-14T06:05:28.896Z,37.70
2023-04-14T06:07:55.891Z,38.10
2023-04-14T06:10:22.520Z,39.27
2023-04-14T06:12:49.111Z,35.20
2023-04-14T06:15:15.945Z,36.37
2023-04-14T06:17:42.750Z,37.10
2023-04-14T06:20:10.852Z,36.87
2023-04-14T06:22:37.406Z,37.23
2023-04-14T06:25:04.390Z,38.27
2023-04-14T06:27:31.205Z,36.33
2023-04-14T06:30:00.008Z,40.13
2023-04-14T06:32:26.935Z,37.13
2023-04-14T06:34:53.613Z,38.87
2023-04-14T06:37:20.395Z,34.53
2023-04-14T06:39:47.054Z,35.17
2023-04-14T06:42:13.650Z,36.87
2023-04-14T06:44:40.456Z,40.53
2023-04-14T06:47:07.461Z,36.37
2023-04-14T06:49:34.035Z,37.42
2023-04-14T06:52:00.682Z,39.90
2023-04-14T06:54:27.291Z,35.90
2023-04-14T06:56:54.660Z,36.77
2023-04-14T06:59:23.018Z,37.97
2023-04-14T07:01:49.736Z,39.23
2023-04-14T07:04:16.521Z,39.27
2023-04-14T07:06:43.232Z,39.30
2023-04-14T07:09:10.707Z,35.63
2023-04-14T07:11:37.262Z,33.57
2023-04-14T07:14:03.986Z,40.43
2023-04-14T07:16:30.822Z,33.77
2023-04-14T07:18:57.516Z,34.88
2023-04-14T07:21:24.421Z,35.03
2023-04-14T07:23:51.066Z,32.97
2023-04-14T07:26:17.606Z,33.60
2023-04-14T07:28:44.399Z,37.72
2023-04-14T07:31:12.657Z,32.10
2023-04-14T07:33:39.702Z,27.17
2023-04-14T07:36:07.179Z,27.02
2023-04-14T07:38:33.952Z,25.97
2023-04-14T07:41:04.860Z,26.73
2023-04-14T07:43:35.596Z,25.20
2023-04-14T07:46:07.407Z,24.10
2023-04-14T07:48:35.645Z,25.98
2023-04-14T07:51:03.059Z,22.45
2023-04-14T07:53:29.959Z,25.95
2023-04-14T07:55:57.693Z,22.88
2023-04-14T07:58:26.704Z,22.95
2023-04-14T08:00:54.582Z,23.70
2023-04-14T08:03:21.635Z,22.05
2023-04-14T08:05:48.423Z,25.13
2023-04-14T08:08:15.630Z,23.90
2023-04-14T08:10:42.672Z,22.27
2023-04-14T08:13:09.801Z,21.48
2023-04-14T08:15:36.661Z,24.10
2023-04-14T08:18:03.343Z,20.83
2023-04-14T08:20:29.937Z,21.40
2023-04-14T08:22:57.629Z,21.55
2023-04-14T08:25:24.493Z,20.13
2023-04-14T08:27:51.142Z,22.25
2023-04-14T08:30:17.783Z,13.63
2023-04-14T08:32:44.609Z,14.52
2023-04-14T08:35:38.891Z,5.45
2023-04-14T08:38:01.060Z,4.40
2023-04-14T08:40:38.264Z,3.75
2023-04-14T08:43:05.672Z,2.95
2023-04-14T08:45:33.315Z,2.35
2023-04-14T08:48:02.180Z,2.15
2023-04-14T08:50:35.885Z,1.92
2023-04-14T08:53:05.703Z,2.28
2023-04-14T08:55:39.130Z,2.45
2023-04-14T08:58:09.455Z,2.45
2023-04-14T09:00:36.258Z,2.65
2023-04-14T09:03:03.752Z,2.13
2023-04-14T09:05:30.859Z,2.13
2023-04-14T09:07:58.804Z,2.00
2023-04-14T09:10:26.375Z,2.42
2023-04-14T09:12:54.601Z,2.65
2023-04-14T09:15:21.593Z,2.67
2023-04-14T09:17:48.376Z,1.88
2023-04-14T09:20:38.656Z,1.58
2023-04-14T09:23:02.110Z,3.47
2023-04-14T09:25:30.415Z,2.30
2023-04-14T09:27:57.072Z,4.45
2023-04-14T09:30:23.957Z,5.53
2023-04-14T09:32:55.110Z,3.25
2023-04-14T09:35:21.732Z,1.88
2023-04-14T09:37:48.840Z,1.80
2023-04-14T09:40:44.767Z,1.42
2023-04-14T09:43:27.865Z,2.60
2023-04-14T09:45:55.897Z,1.88
2023-04-14T09:48:22.653Z,2.08
2023-04-14T09:51:03.248Z,2.97
2023-04-14T09:53:35.539Z,4.45
2023-04-14T09:56:06.170Z,3.22
2023-04-14T09:58:34.012Z,1.70
2023-04-14T10:01:03.064Z,3.22
2023-04-14T10:03:34.748Z,3.50
2023-04-14T10:06:04.611Z,2.80
2023-04-14T10:08:39.200Z,2.55
2023-04-14T10:11:23.413Z,2.13
2023-04-14T10:13:54.118Z,3.08
2023-04-14T10:16:21.425Z,2.67
2023-04-14T10:18:48.456Z,2.88
2023-04-14T10:21:16.027Z,2.58
2023-04-14T10:23:43.771Z,4.68
2023-04-14T10:26:12.239Z,3.65
2023-04-14T10:28:47.936Z,3.47
2023-04-14T10:31:20.787Z,2.30
2023-04-14T10:33:48.486Z,2.92
2023-04-14T10:36:31.961Z,2.65
2023-04-14T10:39:01.370Z,2.58
2023-04-14T10:41:44.021Z,2.65
2023-04-14T10:44:27.096Z,3.25
2023-04-14T10:46:56.177Z,3.10
2023-04-14T10:49:36.996Z,2.75
2023-04-14T10:52:04.891Z,3.38
2023-04-14T10:55:09.628Z,1.95
2023-04-14T10:57:39.942Z,2.47
2023-04-14T11:00:28.238Z,3.85
2023-04-14T11:03:03.308Z,2.67
2023-04-14T11:05:33.528Z,2.95
2023-04-14T11:08:03.229Z,2.90
2023-04-14T11:10:33.674Z,3.13
2023-04-14T11:13:06.767Z,2.05
2023-04-14T11:15:43.733Z,3.60
2023-04-14T11:18:19.641Z,3.25
2023-04-14T11:20:46.292Z,3.75
2023-04-14T11:23:15.156Z,3.42
2023-04-14T11:26:16.816Z,3.63
2023-04-14T11:28:46.225Z,2.15
2023-04-14T11:31:15.908Z,3.65
2023-04-14T11:33:42.852Z,2.72
2023-04-14T11:36:12.812Z,2.33
2023-04-14T11:38:40.703Z,2.38
2023-04-14T11:41:08.380Z,2.20
2023-04-14T11:43:35.613Z,3.97
2023-04-14T11:46:05.584Z,3.30
2023-04-14T11:48:32.334Z,3.42
2023-04-14T11:51:03.386Z,4.05
2023-04-14T11:53:30.826Z,4.68
2023-04-14T11:55:57.788Z,3.25
2023-04-14T11:58:26.501Z,4.60
2023-04-14T12:00:56.081Z,3.55
2023-04-14T12:03:27.830Z,3.58
2023-04-14T12:06:02.216Z,5.38
2023-04-14T12:08:32.927Z,2.63
2023-04-14T12:11:13.423Z,6.25
2023-04-14T12:13:41.614Z,4.90
2023-04-14T12:16:08.993Z,3.00
2023-04-14T12:18:35.982Z,3.53
2023-04-14T12:21:05.497Z,4.03
2023-04-14T12:23:40.596Z,4.68
2023-04-14T12:26:12.911Z,4.82
2023-04-14T12:28:41.396Z,6.15
2023-04-14T12:31:09.097Z,3.65
2023-04-14T12:33:35.929Z,4.05
2023-04-14T12:36:07.395Z,4.70
2023-04-14T12:38:34.400Z,5.25
2023-04-14T12:41:01.632Z,4.13
2023-04-14T12:43:40.566Z,5.50
2023-04-14T12:46:07.925Z,5.35
2023-04-14T12:48:47.112Z,6.45
2023-04-14T12:51:16.506Z,4.50
2023-04-14T12:53:45.029Z,3.90
2023-04-14T12:56:19.507Z,3.45
2023-04-14T12:58:47.387Z,3.53
2023-04-14T13:01:17.284Z,2.95
2023-04-14T13:03:46.182Z,3.20
2023-04-14T13:06:18.135Z,3.92
2023-04-14T13:08:49.457Z,4.70
2023-04-14T13:11:17.227Z,3.45
2023-04-14T13:13:47.126Z,4.80
2023-04-14T13:16:17.993Z,4.18
2023-04-14T13:18:47.369Z,4.68
2023-04-14T13:21:14.305Z,4.32
2023-04-14T13:23:41.520Z,2.58
2023-04-14T13:26:08.348Z,2.58
2023-04-14T13:28:35.190Z,2.65
2023-04-14T13:31:01.789Z,4.15
2023-04-14T13:33:28.435Z,3.08
2023-04-14T13:35:57.967Z,2.95
2023-04-14T13:38:24.757Z,4.68
2023-04-14T13:40:51.295Z,5.22
2023-04-14T13:43:19.378Z,3.15
2023-04-14T13:45:46.609Z,3.97
2023-04-14T13:48:13.737Z,4.70
2023-04-14T13:50:40.589Z,5.40
2023-04-14T13:53:08.204Z,5.32
2023-04-14T13:55:38.084Z,4.28
2023-04-14T13:58:04.964Z,3.85
2023-04-14T14:00:31.670Z,4.05
2023-04-14T14:02:58.460Z,5.97
2023-04-14T14:05:25.563Z,7.15
2023-04-14T14:07:53.290Z,3.50
2023-04-14T14:10:19.978Z,4.80
2023-04-14T14:12:46.559Z,4.65
2023-04-14T14:15:13.376Z,3.35
2023-04-14T14:17:41.603Z,3.35
2023-04-14T14:20:09.255Z,4.80
2023-04-14T14:22:35.884Z,2.88
2023-04-14T14:25:17.500Z,3.10
2023-04-14T14:27:45.695Z,6.13
2023-04-14T14:30:12.907Z,4.90
2023-04-14T14:32:39.538Z,6.68
2023-04-14T14:35:06.502Z,4.97
2023-04-14T14:37:33.067Z,4.72
2023-04-14T14:39:59.638Z,4.97
2023-04-14T14:42:27.098Z,3.47
2023-04-14T14:44:53.823Z,3.92
2023-04-14T14:47:20.937Z,3.55
2023-04-14T14:49:57.234Z,1.98
2023-04-14T14:52:31.726Z,4.38
2023-04-14T14:54:58.489Z,3.67
2023-04-14T14:57:25.769Z,2.53
2023-04-14T14:59:52.788Z,3.42
2023-04-14T15:02:20.906Z,6.25
2023-04-14T15:04:48.139Z,3.58
2023-04-14T15:07:15.043Z,3.17
2023-04-14T15:09:41.702Z,4.03
2023-04-14T15:12:08.510Z,2.90
2023-04-14T15:14:35.196Z,3.33
2023-04-14T15:17:02.768Z,2.90
2023-04-14T15:19:29.344Z,4.55
2023-04-14T15:21:55.941Z,2.08
2023-04-14T15:24:22.541Z,3.58
2023-04-14T15:26:49.351Z,3.40
2023-04-14T15:29:16.271Z,4.40
2023-04-14T15:31:42.916Z,2.65
2023-04-14T15:34:09.505Z,3.88
2023-04-14T15:36:36.136Z,3.40
2023-04-14T15:39:02.857Z,4.32
2023-04-14T15:41:29.494Z,2.88
2023-04-14T15:43:56.189Z,5.18
2023-04-14T15:46:22.884Z,3.25
2023-04-14T15:48:49.509Z,2.13
2023-04-14T15:51:16.091Z,4.53
2023-04-14T15:53:42.703Z,3.88
2023-04-14T15:56:09.238Z,3.53
2023-04-14T15:58:35.779Z,5.43
2023-04-14T16:04:15.601Z,4.63
2023-04-14T16:06:42.218Z,4.00
2023-04-14T16:09:08.750Z,3.63
2023-04-14T16:11:36.158Z,3.45
2023-04-14T16:14:03.107Z,3.38
2023-04-14T16:16:31.059Z,4.25
2023-04-14T16:18:57.783Z,5.38
2023-04-14T16:21:24.306Z,2.95
2023-04-14T16:23:50.857Z,3.50
2023-04-14T16:26:18.387Z,3.03
2023-04-14T16:28:45.654Z,2.55
2023-04-14T16:31:13.032Z,3.63
2023-04-14T16:33:39.967Z,1.95
2023-04-14T16:36:07.790Z,3.15
2023-04-14T16:38:34.458Z,1.63
2023-04-14T16:41:02.248Z,2.50
2023-04-14T16:43:29.180Z,2.17
2023-04-14T16:46:03.111Z,2.72
2023-04-14T16:48:30.964Z,3.33
2023-04-14T16:50:58.828Z,2.53
2023-04-14T16:53:25.912Z,3.13
2023-04-14T16:55:53.202Z,5.63
2023-04-14T16:58:20.143Z,4.30
2023-04-14T17:00:47.089Z,3.97
2023-04-14T17:03:14.040Z,3.97
2023-04-14T17:05:40.924Z,2.45
2023-04-14T17:08:07.551Z,2.28
2023-04-14T17:10:34.241Z,1.80
2023-04-14T17:13:00.826Z,2.53
2023-04-14T17:15:27.759Z,6.03
2023-04-14T17:17:54.623Z,2.80
2023-04-14T17:20:21.389Z,1.55
2023-04-14T17:22:48.460Z,3.65
2023-04-14T17:25:18.210Z,2.22
2023-04-14T17:27:45.726Z,2.55
2023-04-14T17:30:12.867Z,2.95
2023-04-14T17:32:40.064Z,3.78
2023-04-14T17:35:07.642Z,5.60
2023-04-14T17:37:36.385Z,2.72
2023-04-14T17:40:04.845Z,4.57
2023-04-14T17:42:32.084Z,3.10
2023-04-14T17:44:58.844Z,3.92
2023-04-14T17:47:26.992Z,3.20
2023-04-14T17:49:54.380Z,3.97
2023-04-14T17:52:21.379Z,2.40
2023-04-14T17:54:49.786Z,3.88
2023-04-14T17:57:17.507Z,3.03
2023-04-14T17:59:44.886Z,2.78
2023-04-14T18:02:14.132Z,3.65
2023-04-14T18:04:40.884Z,2.92
2023-04-14T18:07:07.570Z,5.18
2023-04-14T18:09:34.785Z,4.65
2023-04-14T18:12:01.502Z,5.10
2023-04-14T18:14:28.227Z,4.18
2023-04-14T18:16:54.822Z,3.67
2023-04-14T18:19:22.917Z,4.40
2023-04-14T18:21:49.576Z,2.97
2023-04-14T18:26:46.321Z,4.68
2023-04-14T18:29:12.911Z,5.68
2023-04-14T18:31:39.422Z,3.20
2023-04-14T18:34:06.343Z,3.15
2023-04-14T18:36:33.968Z,4.13
2023-04-14T18:39:01.288Z,4.65
2023-04-14T18:41:28.133Z,3.00
2023-04-14T18:43:55.156Z,5.10
2023-04-14T18:46:22.109Z,6.13
2023-04-14T18:48:49.413Z,5.68
2023-04-14T18:51:16.567Z,7.60
2023-04-14T18:53:45.167Z,4.05
2023-04-14T18:56:12.253Z,5.70
2023-04-14T18:58:40.517Z,6.93
2023-04-14T19:01:07.881Z,4.22
2023-04-14T19:03:34.509Z,5.35
2023-04-14T19:06:02.163Z,4.70
2023-04-14T19:08:28.996Z,4.00
2023-04-14T19:10:55.618Z,5.82
2023-04-14T19:13:22.310Z,5.28
2023-04-14T19:15:49.098Z,5.63
2023-04-14T19:18:17.165Z,4.47
2023-04-14T19:20:45.530Z,7.13
2023-04-14T19:23:12.126Z,6.35
2023-04-14T19:25:39.352Z,5.75
2023-04-14T19:28:06.700Z,4.88
2023-04-14T19:30:34.191Z,5.72
2023-04-14T19:33:02.301Z,5.10
2023-04-14T19:35:30.940Z,5.22
2023-04-14T19:37:58.026Z,5.53
2023-04-14T19:40:25.356Z,7.05
2023-04-14T19:42:55.124Z,5.43
2023-04-14T19:45:21.907Z,6.22
2023-04-14T19:47:48.700Z,8.80
2023-04-14T19:50:15.496Z,6.68
2023-04-14T19:52:43.980Z,7.30
2023-04-14T19:55:10.678Z,5.95
2023-04-14T19:57:37.247Z,6.63
2023-04-14T20:00:06.700Z,8.98
2023-04-14T20:02:34.126Z,6.20
2023-04-14T20:05:01.080Z,6.07
2023-04-14T20:07:27.689Z,8.13
2023-04-14T20:09:54.580Z,6.47
2023-04-14T20:12:21.164Z,6.30
2023-04-14T20:14:47.700Z,7.85
2023-04-14T20:17:14.303Z,6.75
2023-04-14T20:19:40.844Z,7.40
2023-04-14T20:22:07.554Z,7.25
2023-04-14T20:24:34.381Z,7.32
2023-04-14T20:27:00.923Z,5.75
2023-04-14T20:29:27.466Z,7.03
2023-04-14T20:31:54.165Z,6.32
2023-04-14T20:34:20.796Z,8.27
2023-04-14T20:36:47.445Z,5.82
2023-04-14T20:39:14.373Z,5.60
2023-04-14T20:41:41.229Z,7.50
2023-04-14T20:44:07.967Z,5.80
2023-04-14T20:46:34.551Z,6.13
2023-04-14T20:49:02.561Z,5.32
2023-04-14T20:51:30.794Z,5.68
2023-04-14T20:53:57.439Z,6.88
2023-04-14T20:56:27.935Z,5.90
2023-04-14T20:58:54.752Z,5.63
2023-04-14T21:01:21.378Z,7.45
2023-04-14T21:03:48.488Z,8.10
2023-04-14T21:06:15.984Z,5.80
2023-04-14T21:08:42.796Z,6.20
2023-04-14T21:11:16.859Z,6.57
2023-04-14T21:15:39.802Z,5.87
2023-04-14T21:16:35.215Z,5.47
2023-04-14T21:19:03.609Z,5.03
2023-04-14T21:21:31.557Z,6.32
2023-04-14T21:23:58.321Z,6.37
2023-04-14T21:26:25.575Z,5.57
2023-04-14T21:28:52.343Z,5.80
2023-04-14T21:31:22.066Z,6.90
2023-04-14T21:33:48.782Z,6.80
2023-04-14T21:36:15.944Z,7.90
2023-04-14T21:38:43.488Z,6.23
2023-04-14T21:41:38.369Z,6.30
2023-04-14T21:44:05.361Z,7.60
2023-04-14T21:46:35.762Z,6.67
2023-04-14T21:49:04.437Z,6.73
2023-04-14T21:51:31.788Z,6.57
2023-04-14T21:54:00.378Z,7.23
2023-04-14T21:56:27.327Z,8.40
2023-04-14T21:58:54.377Z,8.57
2023-04-14T22:01:21.363Z,9.57
2023-04-14T22:03:51.433Z,12.03
2023-04-14T22:06:19.141Z,9.37
2023-04-14T22:08:45.844Z,10.37
2023-04-14T22:11:12.512Z,8.83
2023-04-14T22:13:39.159Z,9.17
2023-04-14T22:16:06.492Z,9.10
2023-04-14T22:18:33.249Z,9.13
2023-04-14T22:21:00.046Z,10.30
2023-04-14T22:23:27.422Z,11.47
2023-04-14T22:25:54.053Z,11.30
2023-04-14T22:28:20.656Z,10.93
2023-04-14T22:30:47.529Z,11.57
2023-04-14T22:33:14.657Z,11.40
2023-04-14T22:35:41.500Z,13.27
2023-04-14T22:38:08.148Z,12.20
2023-04-14T22:40:34.681Z,12.03
2023-04-14T22:43:03.880Z,13.43
2023-04-14T22:45:30.943Z,13.63
2023-04-14T22:47:58.078Z,12.20
2023-04-14T22:50:25.442Z,13.93
2023-04-14T22:52:52.943Z,14.87
2023-04-14T22:55:19.494Z,16.40
2023-04-14T22:57:46.126Z,13.03
2023-04-14T23:00:13.283Z,15.10
2023-04-14T23:02:42.041Z,13.00
2023-04-14T23:05:12.277Z,14.23
2023-04-14T23:07:42.069Z,14.87
2023-04-14T23:10:09.205Z,12.97
2023-04-14T23:12:37.293Z,12.57
2023-04-14T23:15:04.425Z,13.80
2023-04-14T23:17:32.028Z,13.63
2023-04-14T23:20:00.669Z,13.60
2023-04-14T23:22:28.195Z,15.50
2023-04-14T23:24:55.012Z,14.93
2023-04-14T23:27:22.023Z,13.13
2023-04-14T23:29:48.851Z,14.60
2023-04-14T23:32:15.756Z,17.37
2023-04-14T23:34:42.311Z,13.33
2023-04-14T23:37:08.849Z,13.63
2023-04-14T23:39:35.626Z,13.67
2023-04-14T23:42:02.401Z,13.87
2023-04-14T23:44:28.982Z,12.27
2023-04-14T23:46:56.251Z,14.03
2023-04-14T23:49:24.430Z,13.03
2023-04-14T23:52:02.006Z,13.60
2023-04-14T23:54:30.835Z,12.07
2023-04-14T23:56:58.845Z,11.47
2023-04-14T23:59:26.554Z,10.57
